createdAt,value
2016-12-16T00:00:15.080Z,15.4
2016-12-16T00:00:43.274Z,15.43
2016-12-16T00:01:11.364Z,15.38
2016-12-16T00:01:39.353Z,15.35
2016-12-16T00:02:07.333Z,15.41
2016-12-16T00:02:35.175Z,15.41
2016-12-16T00:03:03.179Z,15.47
2016-12-16T00:03:31.206Z,15.41
2016-12-16T00:03:59.153Z,15.47
2016-12-16T00:04:27.338Z,15.49
2016-12-16T00:04:55.256Z,15.43
2016-12-16T00:05:23.248Z,15.38
2016-12-16T00:05:51.328Z,15.52
2016-12-16T00:06:19.449Z,15.53
2016-12-16T00:06:47.618Z,15.51
2016-12-16T00:07:15.864Z,15.52
2016-12-16T00:07:44.002Z,15.51
2016-12-16T00:08:12.119Z,15.51
2016-12-16T00:08:40.221Z,15.51
2016-12-16T00:09:08.157Z,15.43
2016-12-16T00:09:36.298Z,15.55
2016-12-16T00:10:04.255Z,15.51
2016-12-16T00:10:32.121Z,15.51
2016-12-16T00:11:00.111Z,15.44
2016-12-16T00:11:28.115Z,15.49
2016-12-16T00:11:56.076Z,15.47
2016-12-16T00:12:24.148Z,15.45
2016-12-16T00:12:52.083Z,15.45
2016-12-16T00:13:20.062Z,15.47
2016-12-16T00:13:47.945Z,15.49
2016-12-16T00:14:15.735Z,15.44
2016-12-16T00:14:43.808Z,15.51
2016-12-16T00:15:11.984Z,15.52
2016-12-16T00:15:39.964Z,15.53
2016-12-16T00:16:07.857Z,15.55
2016-12-16T00:16:35.895Z,15.49
2016-12-16T00:17:03.856Z,15.59
2016-12-16T00:17:31.955Z,15.58
2016-12-16T00:18:00.154Z,15.55
2016-12-16T00:18:28.374Z,15.53
2016-12-16T00:18:56.336Z,15.58
2016-12-16T00:19:24.310Z,15.52
2016-12-16T00:19:52.245Z,15.56
2016-12-16T00:20:20.345Z,15.55
2016-12-16T00:20:48.423Z,15.58
2016-12-16T00:21:16.476Z,15.59
2016-12-16T00:21:44.493Z,15.58
2016-12-16T00:22:12.445Z,15.68
2016-12-16T00:22:40.530Z,15.63
2016-12-16T00:23:08.478Z,15.58
2016-12-16T00:23:36.492Z,15.7
2016-12-16T00:24:04.600Z,15.67
2016-12-16T00:24:32.548Z,15.59
2016-12-16T00:25:00.442Z,15.59
2016-12-16T00:25:28.608Z,15.62
2016-12-16T00:25:56.575Z,15.63
2016-12-16T00:26:24.751Z,15.59
2016-12-16T00:26:52.707Z,15.68
2016-12-16T00:27:20.782Z,15.6
2016-12-16T00:27:48.757Z,15.63
2016-12-16T00:28:16.565Z,15.63
2016-12-16T00:28:44.601Z,15.67
2016-12-16T00:29:12.747Z,15.63
2016-12-16T00:29:40.748Z,15.6
2016-12-16T00:30:08.545Z,15.63
2016-12-16T00:30:36.529Z,15.59
2016-12-16T00:31:04.497Z,15.6
2016-12-16T00:31:32.596Z,15.6
2016-12-16T00:32:00.671Z,15.62
2016-12-16T00:32:28.761Z,15.67
2016-12-16T00:32:56.840Z,15.67
2016-12-16T00:33:24.797Z,15.68
2016-12-16T00:33:52.708Z,15.63
2016-12-16T00:34:20.564Z,15.63
2016-12-16T00:34:48.691Z,15.71
2016-12-16T00:35:16.651Z,15.67
2016-12-16T00:35:44.562Z,15.63
2016-12-16T00:36:12.712Z,15.65
2016-12-16T00:36:40.724Z,15.7
2016-12-16T00:37:08.864Z,15.65
2016-12-16T00:37:36.725Z,15.62
2016-12-16T00:38:04.871Z,15.74
2016-12-16T00:38:33.163Z,15.74
2016-12-16T00:39:01.221Z,15.7
2016-12-16T00:39:29.218Z,15.68
2016-12-16T00:39:57.390Z,15.67
2016-12-16T00:40:25.575Z,15.63
2016-12-16T00:40:53.563Z,15.62
2016-12-16T00:41:21.834Z,15.67
2016-12-16T00:41:49.953Z,15.67
2016-12-16T00:42:17.911Z,15.63
2016-12-16T00:42:46.016Z,15.67
2016-12-16T00:43:14.139Z,15.67
2016-12-16T00:43:42.308Z,15.67
2016-12-16T00:44:10.486Z,15.67
2016-12-16T00:44:51.906Z,15.62
2016-12-16T00:45:39.248Z,15.65
2016-12-16T00:46:07.410Z,15.65
2016-12-16T00:46:35.654Z,15.68
2016-12-16T00:47:03.787Z,15.58
2016-12-16T00:47:31.821Z,15.55
2016-12-16T00:47:59.845Z,15.53
2016-12-16T00:48:27.917Z,15.55
2016-12-16T00:48:55.895Z,15.58
2016-12-16T00:49:23.936Z,15.53
2016-12-16T00:49:52.264Z,15.58
2016-12-16T00:50:20.436Z,15.56
2016-12-16T00:50:48.665Z,15.56
2016-12-16T00:51:16.910Z,15.59
2016-12-16T00:51:44.971Z,15.49
2016-12-16T00:52:13.061Z,15.49
2016-12-16T00:52:41.253Z,15.43
2016-12-16T00:53:09.214Z,15.45
2016-12-16T00:53:37.274Z,15.45
2016-12-16T00:54:05.331Z,15.47
2016-12-16T00:54:33.439Z,15.53
2016-12-16T00:55:01.506Z,15.41
2016-12-16T00:55:29.763Z,15.4
2016-12-16T00:55:57.983Z,15.34
2016-12-16T00:56:26.060Z,15.47
2016-12-16T00:56:54.096Z,15.4
2016-12-16T00:57:22.181Z,15.37
2016-12-16T00:57:50.238Z,15.4
2016-12-16T00:58:18.119Z,15.35
2016-12-16T00:58:46.291Z,15.41
2016-12-16T00:59:14.255Z,15.44
2016-12-16T00:59:42.043Z,15.45
2016-12-16T01:00:10.208Z,15.41
2016-12-16T01:00:38.471Z,15.43
2016-12-16T01:01:06.506Z,15.47
2016-12-16T01:01:34.505Z,15.43
2016-12-16T01:02:02.447Z,15.41
2016-12-16T01:02:30.742Z,15.31
2016-12-16T01:02:58.977Z,15.35
2016-12-16T01:03:27.078Z,15.31
2016-12-16T01:03:55.015Z,15.37
2016-12-16T01:04:22.820Z,15.33
2016-12-16T01:04:50.995Z,15.27
2016-12-16T01:05:19.045Z,15.27
2016-12-16T01:05:47.152Z,15.27
2016-12-16T01:06:15.245Z,15.25
2016-12-16T01:06:43.355Z,15.3
2016-12-16T01:07:11.261Z,15.27
2016-12-16T01:07:39.323Z,15.25
2016-12-16T01:08:07.509Z,15.2
2016-12-16T01:08:35.454Z,15.2
2016-12-16T01:09:03.599Z,15.16
2016-12-16T01:09:31.771Z,15.23
2016-12-16T01:09:59.684Z,15.18
2016-12-16T01:10:27.725Z,15.18
2016-12-16T01:10:55.817Z,15.15
2016-12-16T01:11:23.903Z,15.12
2016-12-16T01:11:52.088Z,15.12
2016-12-16T01:12:20.244Z,15.13
2016-12-16T01:12:48.221Z,15.07
2016-12-16T01:13:16.188Z,15.1
2016-12-16T01:13:44.004Z,15.07
2016-12-16T01:14:12.024Z,15.04
2016-12-16T01:14:40.083Z,15.04
2016-12-16T01:15:08.098Z,15.12
2016-12-16T01:15:36.392Z,15.07
2016-12-16T01:16:04.366Z,15.07
2016-12-16T01:16:32.479Z,15.02
2016-12-16T01:17:00.607Z,15.01
2016-12-16T01:17:28.677Z,14.98
2016-12-16T01:17:56.813Z,15.01
2016-12-16T01:18:24.895Z,14.97
2016-12-16T01:18:53.045Z,14.95
2016-12-16T01:19:21.187Z,14.97
2016-12-16T01:19:49.361Z,14.85
2016-12-16T01:20:17.641Z,14.93
2016-12-16T01:20:45.607Z,14.86
2016-12-16T01:21:13.581Z,14.97
2016-12-16T01:21:41.787Z,14.94
2016-12-16T01:22:09.717Z,14.95
2016-12-16T01:22:37.975Z,14.95
2016-12-16T01:23:06.090Z,14.93
2016-12-16T01:23:34.185Z,14.94
2016-12-16T01:24:02.223Z,14.93
2016-12-16T01:24:30.297Z,14.87
2016-12-16T01:24:58.390Z,14.89
2016-12-16T01:25:26.562Z,14.85
2016-12-16T01:25:54.629Z,14.82
2016-12-16T01:26:22.579Z,14.82
2016-12-16T01:26:50.763Z,14.83
2016-12-16T01:27:18.887Z,14.86
2016-12-16T01:27:47.004Z,14.83
2016-12-16T01:28:15.149Z,14.82
2016-12-16T01:28:43.249Z,14.74
2016-12-16T01:29:11.457Z,14.77
2016-12-16T01:29:39.613Z,14.75
2016-12-16T01:30:07.787Z,14.74
2016-12-16T01:30:36.047Z,14.75
2016-12-16T01:31:04.067Z,14.71
2016-12-16T01:31:32.141Z,14.75
2016-12-16T01:32:00.208Z,14.64
2016-12-16T01:32:28.083Z,14.66
2016-12-16T01:32:56.090Z,14.67
2016-12-16T01:33:24.274Z,14.64
2016-12-16T01:33:52.260Z,14.64
2016-12-16T01:34:20.354Z,14.64
2016-12-16T01:34:48.303Z,14.63
2016-12-16T01:35:16.480Z,14.66
2016-12-16T01:35:44.669Z,14.64
2016-12-16T01:36:12.674Z,14.66
2016-12-16T01:36:40.821Z,14.67
2016-12-16T01:37:08.843Z,14.67
2016-12-16T01:37:36.981Z,14.66
2016-12-16T01:38:05.024Z,14.63
2016-12-16T01:38:33.194Z,14.66
2016-12-16T01:39:01.461Z,14.69
2016-12-16T01:39:29.673Z,14.67
2016-12-16T01:39:57.703Z,14.75
2016-12-16T01:40:25.696Z,14.79
2016-12-16T01:40:53.686Z,14.67
2016-12-16T01:41:21.785Z,14.75
2016-12-16T01:41:49.907Z,14.75
2016-12-16T01:42:18.033Z,14.79
2016-12-16T01:42:46.027Z,14.61
2016-12-16T01:43:14.052Z,14.61
2016-12-16T01:43:42.307Z,14.66
2016-12-16T01:44:10.332Z,14.64
2016-12-16T01:44:38.407Z,14.75
2016-12-16T01:45:06.259Z,14.8
2016-12-16T01:45:34.406Z,14.82
2016-12-16T01:46:02.600Z,14.8
2016-12-16T01:46:30.686Z,14.75
2016-12-16T01:46:58.923Z,14.71
2016-12-16T01:47:27.089Z,14.64
2016-12-16T01:47:55.257Z,14.7
2016-12-16T01:48:23.336Z,14.64
2016-12-16T01:48:51.346Z,14.8
2016-12-16T01:49:19.496Z,14.69
2016-12-16T01:49:47.642Z,14.75
2016-12-16T01:50:15.771Z,14.79
2016-12-16T01:50:43.910Z,14.67
2016-12-16T01:51:12.032Z,14.75
2016-12-16T01:51:40.141Z,14.75
2016-12-16T01:52:08.219Z,14.79
2016-12-16T01:52:36.180Z,14.67
2016-12-16T01:53:04.147Z,14.79
2016-12-16T01:53:32.184Z,14.74
2016-12-16T01:54:00.368Z,14.71
2016-12-16T01:54:28.377Z,14.83
2016-12-16T01:54:56.429Z,14.85
2016-12-16T01:55:24.488Z,14.82
2016-12-16T01:55:52.775Z,14.95
2016-12-16T01:56:27.726Z,14.93
2016-12-16T01:56:56.971Z,14.93
2016-12-16T01:57:31.810Z,14.9
2016-12-16T01:57:59.813Z,14.94
2016-12-16T01:58:27.752Z,14.9
2016-12-16T01:58:55.771Z,14.97
2016-12-16T01:59:23.819Z,14.98
2016-12-16T01:59:51.862Z,14.98
2016-12-16T02:00:19.937Z,14.85
2016-12-16T02:00:47.997Z,14.89
2016-12-16T02:01:16.163Z,14.95
2016-12-16T02:01:44.211Z,14.93
2016-12-16T02:02:12.225Z,14.97
2016-12-16T02:02:40.176Z,14.98
2016-12-16T02:03:08.109Z,14.85
2016-12-16T02:03:36.120Z,14.86
2016-12-16T02:04:04.186Z,14.87
2016-12-16T02:04:32.246Z,15
2016-12-16T02:05:00.105Z,14.86
2016-12-16T02:05:28.106Z,14.98
2016-12-16T02:05:56.197Z,15
2016-12-16T02:06:24.241Z,14.95
2016-12-16T02:06:52.467Z,14.95
2016-12-16T02:07:20.490Z,15
2016-12-16T02:07:48.509Z,14.95
2016-12-16T02:08:16.455Z,15.01
2016-12-16T02:08:44.478Z,14.97
2016-12-16T02:09:12.358Z,15.04
2016-12-16T02:09:40.272Z,15.02
2016-12-16T02:10:08.098Z,15.02
2016-12-16T02:10:36.193Z,15.05
2016-12-16T02:11:04.293Z,15.02
2016-12-16T02:11:32.015Z,15.08
2016-12-16T02:11:59.998Z,15.1
2016-12-16T02:12:28.208Z,15.12
2016-12-16T02:12:56.211Z,15.18
2016-12-16T02:13:24.464Z,15.16
2016-12-16T02:13:52.578Z,15.16
2016-12-16T02:14:20.400Z,15.08
2016-12-16T02:14:48.623Z,15.2
2016-12-16T02:15:16.794Z,15.12
2016-12-16T02:15:44.719Z,15.18
2016-12-16T02:16:12.789Z,15.16
2016-12-16T02:16:40.725Z,15.19
2016-12-16T02:17:08.790Z,15.13
2016-12-16T02:17:36.707Z,15.2
2016-12-16T02:18:04.738Z,15.19
2016-12-16T02:18:32.762Z,15.16
2016-12-16T02:19:00.691Z,15.13
2016-12-16T02:19:28.901Z,15.22
2016-12-16T02:19:56.858Z,15.23
2016-12-16T02:20:24.703Z,15.18
2016-12-16T02:20:52.853Z,15.23
2016-12-16T02:21:20.779Z,15.19
2016-12-16T02:21:48.713Z,15.26
2016-12-16T02:22:16.866Z,15.27
2016-12-16T02:22:45.010Z,15.2
2016-12-16T02:23:13.047Z,15.3
2016-12-16T02:23:40.946Z,15.25
2016-12-16T02:24:08.982Z,15.3
2016-12-16T02:24:36.984Z,15.27
2016-12-16T02:25:05.080Z,15.25
2016-12-16T02:25:33.203Z,15.3
2016-12-16T02:26:01.277Z,15.25
2016-12-16T02:26:29.370Z,15.22
2016-12-16T02:26:57.525Z,15.27
2016-12-16T02:27:25.708Z,15.25
2016-12-16T02:27:53.912Z,15.23
2016-12-16T02:28:21.947Z,15.23
2016-12-16T02:28:49.918Z,15.23
2016-12-16T02:29:18.123Z,15.23
2016-12-16T02:29:46.240Z,15.25
2016-12-16T02:30:14.319Z,15.26
2016-12-16T02:30:42.342Z,15.3
2016-12-16T02:31:10.493Z,15.31
2016-12-16T02:31:38.648Z,15.26
2016-12-16T02:32:06.534Z,15.26
2016-12-16T02:32:34.768Z,15.27
2016-12-16T02:33:02.737Z,15.25
2016-12-16T02:33:30.812Z,15.26
2016-12-16T02:33:58.834Z,15.26
2016-12-16T02:34:26.979Z,15.25
2016-12-16T02:34:55.051Z,15.35
2016-12-16T02:35:22.879Z,15.3
2016-12-16T02:35:50.617Z,15.26
2016-12-16T02:36:18.701Z,15.27
2016-12-16T02:36:46.643Z,15.27
2016-12-16T02:37:14.889Z,15.26
2016-12-16T02:37:42.751Z,15.3
2016-12-16T02:38:10.762Z,15.31
2016-12-16T02:38:38.860Z,15.3
2016-12-16T02:39:07.083Z,15.3
2016-12-16T02:39:35.121Z,15.27
2016-12-16T02:40:03.159Z,15.3
2016-12-16T02:40:31.179Z,15.34
2016-12-16T02:40:59.418Z,15.31
2016-12-16T02:41:27.388Z,15.37
2016-12-16T02:41:55.376Z,15.23
2016-12-16T02:42:23.574Z,15.35
2016-12-16T02:42:51.692Z,15.37
2016-12-16T02:43:19.745Z,15.4
2016-12-16T02:43:47.759Z,15.35
2016-12-16T02:44:15.739Z,15.38
2016-12-16T02:44:43.867Z,15.34
2016-12-16T02:45:12.073Z,15.35
2016-12-16T02:45:40.136Z,15.31
2016-12-16T02:46:08.211Z,15.35
2016-12-16T02:46:36.400Z,15.37
2016-12-16T02:47:04.503Z,15.35
2016-12-16T02:47:32.761Z,15.34
2016-12-16T02:48:00.734Z,15.27
2016-12-16T02:48:28.987Z,15.31
2016-12-16T02:48:56.978Z,15.38
2016-12-16T02:49:25.024Z,15.37
2016-12-16T02:49:53.032Z,15.35
2016-12-16T02:50:21.050Z,15.31
2016-12-16T02:50:49.285Z,15.41
2016-12-16T02:51:17.495Z,15.34
2016-12-16T02:51:45.674Z,15.43
2016-12-16T02:52:13.865Z,15.38
2016-12-16T02:52:42.024Z,15.27
2016-12-16T02:53:10.177Z,15.4
2016-12-16T02:53:38.216Z,15.34
2016-12-16T02:54:06.330Z,15.41
2016-12-16T02:54:34.552Z,15.33
2016-12-16T02:55:02.651Z,15.37
2016-12-16T02:55:30.577Z,15.43
2016-12-16T02:55:58.657Z,15.35
2016-12-16T02:56:26.669Z,15.3
2016-12-16T02:56:54.885Z,15.43
2016-12-16T02:57:23.131Z,15.43
2016-12-16T02:57:51.452Z,15.33
2016-12-16T02:58:19.528Z,15.34
2016-12-16T02:58:47.626Z,15.38
2016-12-16T02:59:15.671Z,15.3
2016-12-16T02:59:43.683Z,15.38
2016-12-16T03:00:11.873Z,15.37
2016-12-16T03:00:40.002Z,15.35
2016-12-16T03:01:08.149Z,15.37
2016-12-16T03:01:36.159Z,15.41
2016-12-16T03:02:04.275Z,15.37
2016-12-16T03:02:32.283Z,15.33
2016-12-16T03:03:00.252Z,15.31
2016-12-16T03:03:28.426Z,15.31
2016-12-16T03:03:56.464Z,15.3
2016-12-16T03:04:24.476Z,15.26
2016-12-16T03:04:52.675Z,15.3
2016-12-16T03:05:20.845Z,15.23
2016-12-16T03:05:49.101Z,15.27
2016-12-16T03:06:17.083Z,15.2
2016-12-16T03:06:45.223Z,15.22
2016-12-16T03:07:13.374Z,15.22
2016-12-16T03:07:41.541Z,15.13
2016-12-16T03:08:09.569Z,15.13
2016-12-16T03:08:37.623Z,15.15
2016-12-16T03:09:05.590Z,15.16
2016-12-16T03:09:33.747Z,15.18
2016-12-16T03:10:01.945Z,15.16
2016-12-16T03:10:30.123Z,15.16
2016-12-16T03:10:58.224Z,15.13
2016-12-16T03:11:26.352Z,15.16
2016-12-16T03:11:54.654Z,15.16
2016-12-16T03:12:22.861Z,15.12
2016-12-16T03:12:51.001Z,15.2
2016-12-16T03:13:18.919Z,15.22
2016-12-16T03:13:47.091Z,15.18
2016-12-16T03:14:15.293Z,15.22
2016-12-16T03:14:43.265Z,15.2
2016-12-16T03:15:11.496Z,15.23
2016-12-16T03:15:39.485Z,15.23
2016-12-16T03:16:07.409Z,15.26
2016-12-16T03:16:35.450Z,15.2
2016-12-16T03:17:03.482Z,15.27
2016-12-16T03:17:31.575Z,15.26
2016-12-16T03:17:59.876Z,15.27
2016-12-16T03:18:27.874Z,15.23
2016-12-16T03:18:56.000Z,15.27
2016-12-16T03:19:24.101Z,15.26
2016-12-16T03:19:52.310Z,15.35
2016-12-16T03:20:20.351Z,15.31
2016-12-16T03:20:48.591Z,15.26
2016-12-16T03:21:16.674Z,15.3
2016-12-16T03:21:44.916Z,15.25
2016-12-16T03:22:12.829Z,15.33
2016-12-16T03:22:41.054Z,15.31
2016-12-16T03:23:09.184Z,15.26
2016-12-16T03:23:37.317Z,15.3
2016-12-16T03:24:05.344Z,15.31
2016-12-16T03:24:33.428Z,15.26
2016-12-16T03:25:01.665Z,15.25
2016-12-16T03:25:29.682Z,15.23
2016-12-16T03:25:57.567Z,15.37
2016-12-16T03:26:25.617Z,15.35
2016-12-16T03:26:53.844Z,15.33
2016-12-16T03:27:22.017Z,15.27
2016-12-16T03:27:50.258Z,15.31
2016-12-16T03:28:18.310Z,15.37
2016-12-16T03:28:46.332Z,15.34
2016-12-16T03:29:14.376Z,15.27
2016-12-16T03:29:42.573Z,15.26
2016-12-16T03:30:10.693Z,15.33
2016-12-16T03:30:38.545Z,15.35
2016-12-16T03:31:06.734Z,15.34
2016-12-16T03:31:34.866Z,15.33
2016-12-16T03:32:02.974Z,15.25
2016-12-16T03:32:31.098Z,15.3
2016-12-16T03:32:59.373Z,15.27
2016-12-16T03:33:27.461Z,15.27
2016-12-16T03:33:55.689Z,15.27
2016-12-16T03:34:23.718Z,15.23
2016-12-16T03:34:51.709Z,15.27
2016-12-16T03:35:19.650Z,15.27
2016-12-16T03:35:47.733Z,15.27
2016-12-16T03:36:15.834Z,15.26
2016-12-16T03:36:44.000Z,15.23
2016-12-16T03:37:12.026Z,15.19
2016-12-16T03:37:40.256Z,15.2
2016-12-16T03:38:08.313Z,15.16
2016-12-16T03:38:36.415Z,15.23
2016-12-16T03:39:04.552Z,15.13
2016-12-16T03:39:32.795Z,15.16
2016-12-16T03:40:00.718Z,15.2
2016-12-16T03:40:28.776Z,15.12
2016-12-16T03:40:56.868Z,15.08
2016-12-16T03:41:24.974Z,15.08
2016-12-16T03:41:53.203Z,15.12
2016-12-16T03:42:21.407Z,15.1
2016-12-16T03:42:49.559Z,15.01
2016-12-16T03:43:17.758Z,15.08
2016-12-16T03:43:46.045Z,15.01
2016-12-16T03:44:14.149Z,15.04
2016-12-16T03:44:42.156Z,15.04
2016-12-16T03:45:10.262Z,15.02
2016-12-16T03:45:38.331Z,15.07
2016-12-16T03:46:06.351Z,15.01
2016-12-16T03:46:34.485Z,15.05
2016-12-16T03:47:02.714Z,15.01
2016-12-16T03:47:30.749Z,15.04
2016-12-16T03:47:58.851Z,15.04
2016-12-16T03:48:27.004Z,15.02
2016-12-16T03:48:54.995Z,15.08
2016-12-16T03:49:22.867Z,15.08
2016-12-16T03:49:51.031Z,15.18
2016-12-16T03:50:19.024Z,15.15
2016-12-16T03:50:47.176Z,15.16
2016-12-16T03:51:15.190Z,15.15
2016-12-16T03:51:43.298Z,15.18
2016-12-16T03:52:11.396Z,15.15
2016-12-16T03:52:39.529Z,15.18
2016-12-16T03:53:07.886Z,15.18
2016-12-16T03:53:36.040Z,15.2
2016-12-16T03:54:03.954Z,15.22
2016-12-16T03:54:32.128Z,15.15
2016-12-16T03:55:00.051Z,15.13
2016-12-16T03:55:28.265Z,15.25
2016-12-16T03:55:56.506Z,15.33
2016-12-16T03:56:24.661Z,15.19
2016-12-16T03:56:52.805Z,15.19
2016-12-16T03:57:20.731Z,15.22
2016-12-16T03:57:48.660Z,15.19
2016-12-16T03:58:17.032Z,15.19
2016-12-16T03:58:44.934Z,15.2
2016-12-16T03:59:13.151Z,15.08
2016-12-16T03:59:41.144Z,15.08
2016-12-16T04:00:09.144Z,15.1
2016-12-16T04:00:37.304Z,15.01
2016-12-16T04:01:05.432Z,15.01
2016-12-16T04:01:33.485Z,15.01
2016-12-16T04:02:01.645Z,15.01
2016-12-16T04:02:29.757Z,15.07
2016-12-16T04:02:57.722Z,15.04
2016-12-16T04:03:25.923Z,15.07
2016-12-16T04:03:54.055Z,15.02
2016-12-16T04:04:22.229Z,14.98
2016-12-16T04:04:50.190Z,14.95
2016-12-16T04:05:18.134Z,14.89
2016-12-16T04:05:46.350Z,15
2016-12-16T04:06:14.265Z,15
2016-12-16T04:06:42.339Z,14.87
2016-12-16T04:07:10.371Z,14.87
2016-12-16T04:07:38.450Z,14.89
2016-12-16T04:08:06.544Z,14.97
2016-12-16T04:08:34.771Z,14.95
2016-12-16T04:09:02.798Z,14.9
2016-12-16T04:09:30.801Z,14.94
2016-12-16T04:09:58.849Z,14.89
2016-12-16T04:10:27.122Z,14.93
2016-12-16T04:10:55.041Z,14.93
2016-12-16T04:11:23.072Z,14.9
2016-12-16T04:11:51.140Z,14.94
2016-12-16T04:12:19.353Z,14.9
2016-12-16T04:12:47.526Z,14.93
2016-12-16T04:13:15.673Z,14.97
2016-12-16T04:13:43.890Z,14.94
2016-12-16T04:14:11.856Z,14.87
2016-12-16T04:14:39.947Z,14.93
2016-12-16T04:15:08.125Z,14.95
2016-12-16T04:15:36.180Z,14.98
2016-12-16T04:16:04.410Z,14.94
2016-12-16T04:16:32.442Z,14.94
2016-12-16T04:17:00.474Z,14.95
2016-12-16T04:17:28.510Z,15
2016-12-16T04:17:56.685Z,14.87
2016-12-16T04:18:24.905Z,14.89
2016-12-16T04:18:52.997Z,14.87
2016-12-16T04:19:21.060Z,14.86
2016-12-16T04:19:48.949Z,14.79
2016-12-16T04:20:17.007Z,14.75
2016-12-16T04:20:45.172Z,14.74
2016-12-16T04:21:13.278Z,14.63
2016-12-16T04:21:41.256Z,14.66
2016-12-16T04:22:09.255Z,14.67
2016-12-16T04:22:37.394Z,14.67
2016-12-16T04:23:05.491Z,14.64
2016-12-16T04:23:33.786Z,14.67
2016-12-16T04:24:01.647Z,14.66
2016-12-16T04:24:29.658Z,14.67
2016-12-16T04:24:57.765Z,14.66
2016-12-16T04:25:25.854Z,14.71
2016-12-16T04:25:53.906Z,14.59
2016-12-16T04:26:21.930Z,14.6
2016-12-16T04:26:50.066Z,14.57
2016-12-16T04:27:18.126Z,14.61
2016-12-16T04:27:46.250Z,14.63
2016-12-16T04:28:14.339Z,14.63
2016-12-16T04:28:42.262Z,14.56
2016-12-16T04:29:10.382Z,14.6
2016-12-16T04:29:38.383Z,14.57
2016-12-16T04:30:06.451Z,14.6
2016-12-16T04:30:34.452Z,14.56
2016-12-16T04:31:02.595Z,14.53
2016-12-16T04:31:30.762Z,14.53
2016-12-16T04:31:58.952Z,14.53
2016-12-16T04:32:26.922Z,14.51
2016-12-16T04:32:55.093Z,14.53
2016-12-16T04:33:23.086Z,14.49
2016-12-16T04:33:51.116Z,14.45
2016-12-16T04:34:19.322Z,14.52
2016-12-16T04:34:47.333Z,14.45
2016-12-16T04:35:15.442Z,14.49
2016-12-16T04:35:43.441Z,14.46
2016-12-16T04:36:11.624Z,14.46
2016-12-16T04:36:39.611Z,14.51
2016-12-16T04:37:07.535Z,14.46
2016-12-16T04:37:35.684Z,14.39
2016-12-16T04:38:03.860Z,14.48
2016-12-16T04:38:31.836Z,14.45
2016-12-16T04:38:59.982Z,14.48
2016-12-16T04:39:28.199Z,14.44
2016-12-16T04:39:56.125Z,14.39
2016-12-16T04:40:24.164Z,14.38
2016-12-16T04:40:52.449Z,14.41
2016-12-16T04:41:20.400Z,14.34
2016-12-16T04:41:48.592Z,14.44
2016-12-16T04:42:16.525Z,14.42
2016-12-16T04:42:44.422Z,14.41
2016-12-16T04:43:12.438Z,14.42
2016-12-16T04:43:40.678Z,14.42
2016-12-16T04:44:08.840Z,14.38
2016-12-16T04:44:37.074Z,14.34
2016-12-16T04:45:05.206Z,14.38
2016-12-16T04:45:33.336Z,14.33
2016-12-16T04:46:01.247Z,14.34
2016-12-16T04:46:29.040Z,14.36
2016-12-16T04:46:57.152Z,14.36
2016-12-16T04:47:25.282Z,14.39
2016-12-16T04:47:53.482Z,14.41
2016-12-16T04:48:21.583Z,14.33
2016-12-16T04:48:49.702Z,14.38
2016-12-16T04:49:17.706Z,14.31
2016-12-16T04:49:45.627Z,14.36
2016-12-16T04:50:13.745Z,14.3
2016-12-16T04:50:41.799Z,14.36
2016-12-16T04:51:09.819Z,14.33
2016-12-16T04:51:37.733Z,14.33
2016-12-16T04:52:05.899Z,14.33
2016-12-16T04:52:34.177Z,14.33
2016-12-16T04:53:02.216Z,14.36
2016-12-16T04:53:30.235Z,14.28
2016-12-16T04:53:58.331Z,14.36
2016-12-16T04:54:26.452Z,14.31
2016-12-16T04:54:54.500Z,14.34
2016-12-16T04:55:22.532Z,14.34
2016-12-16T04:55:50.542Z,14.33
2016-12-16T04:56:18.720Z,14.26
2016-12-16T04:56:46.611Z,14.2
2016-12-16T04:57:14.772Z,14.24
2016-12-16T04:57:42.762Z,14.21
2016-12-16T04:58:10.798Z,14.3
2016-12-16T04:58:38.899Z,14.27
2016-12-16T04:59:07.079Z,14.21
2016-12-16T04:59:35.269Z,14.24
2016-12-16T05:00:03.407Z,14.27
2016-12-16T05:00:31.338Z,14.2
2016-12-16T05:00:59.267Z,14.23
2016-12-16T05:01:27.524Z,14.21
2016-12-16T05:01:55.642Z,14.27
2016-12-16T05:02:23.861Z,14.24
2016-12-16T05:02:51.951Z,14.2
2016-12-16T05:03:20.103Z,14.16
2016-12-16T05:03:48.186Z,14.21
2016-12-16T05:04:16.250Z,14.23
2016-12-16T05:04:44.245Z,14.21
2016-12-16T05:05:12.286Z,14.26
2016-12-16T05:05:40.332Z,14.21
2016-12-16T05:06:08.447Z,14.28
2016-12-16T05:06:36.467Z,14.21
2016-12-16T05:07:04.528Z,14.2
2016-12-16T05:07:32.676Z,14.21
2016-12-16T05:08:00.749Z,14.19
2016-12-16T05:08:28.966Z,14.21
2016-12-16T05:08:57.031Z,14.23
2016-12-16T05:09:25.255Z,14.2
2016-12-16T05:09:53.488Z,14.19
2016-12-16T05:10:21.524Z,14.19
2016-12-16T05:10:49.607Z,14.2
2016-12-16T05:11:17.640Z,14.24
2016-12-16T05:11:45.777Z,14.27
2016-12-16T05:12:14.028Z,14.2
2016-12-16T05:12:42.112Z,14.16
2016-12-16T05:13:10.218Z,14.21
2016-12-16T05:13:38.273Z,14.16
2016-12-16T05:14:06.426Z,14.15
2016-12-16T05:14:34.597Z,14.15
2016-12-16T05:15:02.621Z,14.16
2016-12-16T05:15:30.753Z,14.16
2016-12-16T05:15:58.754Z,14.2
2016-12-16T05:16:26.780Z,14.19
2016-12-16T05:16:54.953Z,14.11
2016-12-16T05:17:23.128Z,14.06
2016-12-16T05:17:51.369Z,14.06
2016-12-16T05:18:19.460Z,14.11
2016-12-16T05:18:47.613Z,14.15
2016-12-16T05:19:15.746Z,14.06
2016-12-16T05:19:43.708Z,14.2
2016-12-16T05:20:11.919Z,14.15
2016-12-16T05:20:40.010Z,14.16
2016-12-16T05:21:08.001Z,14.16
2016-12-16T05:21:36.047Z,14.08
2016-12-16T05:22:04.160Z,14.06
2016-12-16T05:22:32.140Z,14.06
2016-12-16T05:23:00.332Z,14.05
2016-12-16T05:23:28.541Z,14.01
2016-12-16T05:23:56.584Z,14.01
2016-12-16T05:24:24.774Z,14.03
2016-12-16T05:24:52.880Z,14.06
2016-12-16T05:25:21.001Z,14.03
2016-12-16T05:25:49.159Z,14.01
2016-12-16T05:26:17.145Z,14.02
2016-12-16T05:26:45.258Z,14.08
2016-12-16T05:27:13.283Z,14.02
2016-12-16T05:27:41.416Z,14.02
2016-12-16T05:28:09.494Z,13.99
2016-12-16T05:28:37.526Z,13.95
2016-12-16T05:29:05.479Z,13.99
2016-12-16T05:29:33.498Z,13.94
2016-12-16T05:30:01.738Z,13.97
2016-12-16T05:30:29.730Z,13.95
2016-12-16T05:30:57.666Z,14.01
2016-12-16T05:31:25.804Z,13.95
2016-12-16T05:31:53.862Z,13.95
2016-12-16T05:32:21.911Z,13.95
2016-12-16T05:32:49.762Z,13.88
2016-12-16T05:33:17.969Z,13.86
2016-12-16T05:33:46.080Z,13.83
2016-12-16T05:34:14.419Z,13.87
2016-12-16T05:34:42.416Z,13.87
2016-12-16T05:35:10.596Z,13.94
2016-12-16T05:35:38.736Z,13.87
2016-12-16T05:36:06.825Z,13.93
2016-12-16T05:36:34.766Z,13.94
2016-12-16T05:37:03.001Z,13.97
2016-12-16T05:37:31.107Z,13.94
2016-12-16T05:37:59.239Z,13.9
2016-12-16T05:38:27.352Z,14.01
2016-12-16T05:38:55.466Z,13.94
2016-12-16T05:39:23.653Z,13.9
2016-12-16T05:39:51.705Z,13.94
2016-12-16T05:40:19.914Z,13.99
2016-12-16T05:40:48.038Z,13.93
2016-12-16T05:41:16.225Z,13.93
2016-12-16T05:41:44.331Z,13.91
2016-12-16T05:42:12.381Z,13.97
2016-12-16T05:42:40.429Z,13.94
2016-12-16T05:43:08.546Z,13.95
2016-12-16T05:43:36.602Z,13.99
2016-12-16T05:44:04.522Z,13.9
2016-12-16T05:44:32.863Z,13.99
2016-12-16T05:45:00.976Z,13.97
2016-12-16T05:45:29.184Z,13.95
2016-12-16T05:45:57.261Z,13.91
2016-12-16T05:46:25.306Z,13.99
2016-12-16T05:46:53.382Z,13.91
2016-12-16T05:47:21.543Z,13.99
2016-12-16T05:47:49.596Z,13.99
2016-12-16T05:48:17.497Z,13.99
2016-12-16T05:48:45.704Z,13.93
2016-12-16T05:49:13.984Z,13.91
2016-12-16T05:49:42.353Z,13.95
2016-12-16T05:50:10.497Z,13.99
2016-12-16T05:50:38.512Z,13.99
2016-12-16T05:51:06.581Z,13.97
2016-12-16T05:51:34.689Z,14.01
2016-12-16T05:52:02.825Z,13.94
2016-12-16T05:52:30.828Z,13.95
2016-12-16T05:52:59.219Z,13.99
2016-12-16T05:53:27.465Z,13.99
2016-12-16T05:53:55.805Z,13.95
2016-12-16T05:54:24.053Z,14.01
2016-12-16T05:54:52.254Z,13.99
2016-12-16T05:55:20.525Z,14.03
2016-12-16T05:55:48.672Z,13.97
2016-12-16T05:56:16.723Z,14.01
2016-12-16T05:56:44.753Z,13.97
2016-12-16T05:57:12.966Z,13.97
2016-12-16T05:57:41.018Z,14.01
2016-12-16T05:58:09.095Z,13.95
2016-12-16T05:58:37.097Z,13.9
2016-12-16T05:59:05.464Z,13.87
2016-12-16T05:59:33.471Z,13.9
2016-12-16T06:00:01.676Z,13.99
2016-12-16T06:00:30.039Z,13.9
2016-12-16T06:00:58.067Z,13.95
2016-12-16T06:01:26.104Z,13.97
2016-12-16T06:01:54.298Z,14.08
2016-12-16T06:02:22.357Z,14.02
2016-12-16T06:02:50.467Z,13.93
2016-12-16T06:03:18.890Z,13.97
2016-12-16T06:03:47.260Z,14.02